sensor_id;sensor_type;location;lat;lon;timestamp;temperature;humidity
13186;DHT22;6658;53.080;7.428;2023-02-13T00:00:11;7.80;99.90
13186;DHT22;6658;53.080;7.428;2023-02-13T00:02:37;7.80;99.90
13186;DHT22;6658;53.080;7.428;2023-02-13T00:05:03;7.70;99.90
13186;DHT22;6658;53.080;7.428;2023-02-13T00:07:29;7.80;99.90
13186;DHT22;6658;53.080;7.428;2023-02-13T00:09:54;7.70;99.90
13186;DHT22;6658;53.080;7.428;2023-02-13T00:12:20;7.70;99.90
13186;DHT22;6658;53.080;7.428;2023-02-13T00:14:46;7.70;99.90
13186;DHT22;6658;53.080;7.428;2023-02-13T00:17:11;7.70;99.90
13186;DHT22;6658;53.080;7.428;2023-02-13T00:19:37;7.70;99.90
13186;DHT22;6658;53.080;7.428;2023-02-13T00:22:03;7.70;99.90
13186;DHT22;6658;53.080;7.428;2023-02-13T00:24:28;7.70;99.90
13186;DHT22;6658;53.080;7.428;2023-02-13T00:26:54;7.70;99.90
13186;DHT22;6658;53.080;7.428;2023-02-13T00:29:20;7.70;99.90
13186;DHT22;6658;53.080;7.428;2023-02-13T00:31:45;7.60;99.90
13186;DHT22;6658;53.080;7.428;2023-02-13T00:34:11;7.70;99.90
13186;DHT22;6658;53.080;7.428;2023-02-13T00:36:37;7.70;99.90
13186;DHT22;6658;53.080;7.428;2023-02-13T00:39:02;7.70;99.90
13186;DHT22;6658;53.080;7.428;2023-02-13T00:41:28;7.70;99.90
13186;DHT22;6658;53.080;7.428;2023-02-13T00:43:54;7.70;99.90
13186;DHT22;6658;53.080;7.428;2023-02-13T00:46:20;7.70;99.90
13186;DHT22;6658;53.080;7.428;2023-02-13T00:48:46;7.70;99.90
13186;DHT22;6658;53.080;7.428;2023-02-13T00:51:12;7.70;99.90
13186;DHT22;6658;53.080;7.428;2023-02-13T00:53:38;7.70;99.90
13186;DHT22;6658;53.080;7.428;2023-02-13T00:56:05;7.70;99.90
13186;DHT22;6658;53.080;7.428;2023-02-13T00:58:31;7.70;99.90
13186;DHT22;6658;53.080;7.428;2023-02-13T01:00:57;7.70;99.90
13186;DHT22;6658;53.080;7.428;2023-02-13T01:03:23;7.70;99.90
13186;DHT22;6658;53.080;7.428;2023-02-13T01:05:49;7.70;99.90
13186;DHT22;6658;53.080;7.428;2023-02-13T01:08:16;7.60;99.90
13186;DHT22;6658;53.080;7.428;2023-02-13T01:10:44;7.60;99.90
13186;DHT22;6658;53.080;7.428;2023-02-13T01:13:13;7.60;99.90
13186;DHT22;6658;53.080;7.428;2023-02-13T01:15:40;7.60;99.90
13186;DHT22;6658;53.080;7.428;2023-02-13T01:18:06;7.60;99.90
13186;DHT22;6658;53.080;7.428;2023-02-13T01:20:32;7.60;99.90
13186;DHT22;6658;53.080;7.428;2023-02-13T01:22:58;7.60;99.90
13186;DHT22;6658;53.080;7.428;2023-02-13T01:25:23;7.60;99.90
13186;DHT22;6658;53.080;7.428;2023-02-13T01:27:50;7.60;99.90
13186;DHT22;6658;53.080;7.428;2023-02-13T01:30:16;7.60;99.90
13186;DHT22;6658;53.080;7.428;2023-02-13T01:32:44;7.60;99.90
13186;DHT22;6658;53.080;7.428;2023-02-13T01:35:11;7.60;99.90
13186;DHT22;6658;53.080;7.428;2023-02-13T01:37:38;7.60;99.90
13186;DHT22;6658;53.080;7.428;2023-02-13T01:40:05;7.60;99.90
13186;DHT22;6658;53.080;7.428;2023-02-13T01:42:33;7.60;99.90
13186;DHT22;6658;53.080;7.428;2023-02-13T01:45:43;7.60;99.90
13186;DHT22;6658;53.080;7.428;2023-02-13T01:48:02;7.60;99.90
13186;DHT22;6658;53.080;7.428;2023-02-13T01:50:36;7.60;99.90
13186;DHT22;6658;53.080;7.428;2023-02-13T01:55:32;7.60;99.90
13186;DHT22;6658;53.080;7.428;2023-02-13T01:58:05;7.60;99.90
13186;DHT22;6658;53.080;7.428;2023-02-13T02:00:33;7.60;99.90
13186;DHT22;6658;53.080;7.428;2023-02-13T02:03:06;7.60;99.90
13186;DHT22;6658;53.080;7.428;2023-02-13T02:05:34;7.60;99.90
13186;DHT22;6658;53.080;7.428;2023-02-13T02:08:02;7.60;99.90
13186;DHT22;6658;53.080;7.428;2023-02-13T02:10:29;7.60;99.90
13186;DHT22;6658;53.080;7.428;2023-02-13T02:13:13;7.60;99.90
13186;DHT22;6658;53.080;7.428;2023-02-13T02:15:40;7.50;99.90
13186;DHT22;6658;53.080;7.428;2023-02-13T02:18:21;7.50;99.90
13186;DHT22;6658;53.080;7.428;2023-02-13T02:29:00;7.50;99.90
13186;DHT22;6658;53.080;7.428;2023-02-13T02:34:41;7.50;99.90
13186;DHT22;6658;53.080;7.428;2023-02-13T02:37:26;7.50;99.90
13186;DHT22;6658;53.080;7.428;2023-02-13T02:40:29;7.50;99.90
13186;DHT22;6658;53.080;7.428;2023-02-13T02:49:11;7.50;99.90
13186;DHT22;6658;53.080;7.428;2023-02-13T02:52:05;7.50;99.90
13186;DHT22;6658;53.080;7.428;2023-02-13T02:54:53;7.50;99.90
13186;DHT22;6658;53.080;7.428;2023-02-13T02:57:43;7.50;99.90
13186;DHT22;6658;53.080;7.428;2023-02-13T03:00:28;7.50;99.90
13186;DHT22;6658;53.080;7.428;2023-02-13T03:03:19;7.40;99.90
13186;DHT22;6658;53.080;7.428;2023-02-13T03:08:58;7.40;99.90
13186;DHT22;6658;53.080;7.428;2023-02-13T03:11:48;7.40;99.90
13186;DHT22;6658;53.080;7.428;2023-02-13T03:14:32;7.40;99.90
13186;DHT22;6658;53.080;7.428;2023-02-13T03:16:58;7.40;99.90
13186;DHT22;6658;53.080;7.428;2023-02-13T03:19:57;7.40;99.90
13186;DHT22;6658;53.080;7.428;2023-02-13T03:25:49;7.40;99.90
13186;DHT22;6658;53.080;7.428;2023-02-13T03:42:05;7.40;99.90
13186;DHT22;6658;53.080;7.428;2023-02-13T03:44:40;7.40;99.90
13186;DHT22;6658;53.080;7.428;2023-02-13T03:47:09;7.40;99.90
13186;DHT22;6658;53.080;7.428;2023-02-13T03:49:40;7.40;99.90
13186;DHT22;6658;53.080;7.428;2023-02-13T03:55:31;7.40;99.90
13186;DHT22;6658;53.080;7.428;2023-02-13T03:58:26;7.40;99.90
13186;DHT22;6658;53.080;7.428;2023-02-13T04:01:14;7.40;99.90
13186;DHT22;6658;53.080;7.428;2023-02-13T04:03:45;7.40;99.90
13186;DHT22;6658;53.080;7.428;2023-02-13T04:06:16;7.40;99.90
13186;DHT22;6658;53.080;7.428;2023-02-13T04:08:43;7.40;99.90
13186;DHT22;6658;53.080;7.428;2023-02-13T04:11:14;7.40;99.90
13186;DHT22;6658;53.080;7.428;2023-02-13T04:16:21;7.40;99.90
13186;DHT22;6658;53.080;7.428;2023-02-13T04:18:48;7.40;99.90
13186;DHT22;6658;53.080;7.428;2023-02-13T04:21:16;7.40;99.90
13186;DHT22;6658;53.080;7.428;2023-02-13T04:23:42;7.40;99.90
13186;DHT22;6658;53.080;7.428;2023-02-13T04:26:15;7.40;99.90
13186;DHT22;6658;53.080;7.428;2023-02-13T04:28:42;7.40;99.90
13186;DHT22;6658;53.080;7.428;2023-02-13T04:31:07;7.30;99.90
13186;DHT22;6658;53.080;7.428;2023-02-13T04:33:33;7.40;99.90
13186;DHT22;6658;53.080;7.428;2023-02-13T04:35:59;7.40;99.90
13186;DHT22;6658;53.080;7.428;2023-02-13T04:38:24;7.30;99.90
13186;DHT22;6658;53.080;7.428;2023-02-13T04:40:50;7.30;99.90
13186;DHT22;6658;53.080;7.428;2023-02-13T04:43:16;7.30;99.90
13186;DHT22;6658;53.080;7.428;2023-02-13T04:45:41;7.40;99.90
13186;DHT22;6658;53.080;7.428;2023-02-13T04:48:08;7.30;99.90
13186;DHT22;6658;53.080;7.428;2023-02-13T04:50:33;7.30;99.90
13186;DHT22;6658;53.080;7.428;2023-02-13T04:52:59;7.30;99.90
13186;DHT22;6658;53.080;7.428;2023-02-13T04:55:26;7.30;99.90
13186;DHT22;6658;53.080;7.428;2023-02-13T04:57:54;7.30;99.90
13186;DHT22;6658;53.080;7.428;2023-02-13T05:00:24;7.30;99.90
13186;DHT22;6658;53.080;7.428;2023-02-13T05:02:51;7.30;99.90
13186;DHT22;6658;53.080;7.428;2023-02-13T05:05:16;7.30;99.90
13186;DHT22;6658;53.080;7.428;2023-02-13T05:07:42;7.30;99.90
13186;DHT22;6658;53.080;7.428;2023-02-13T05:10:11;7.30;99.90
13186;DHT22;6658;53.080;7.428;2023-02-13T05:12:37;7.30;99.90
13186;DHT22;6658;53.080;7.428;2023-02-13T05:15:04;7.30;99.90
13186;DHT22;6658;53.080;7.428;2023-02-13T05:17:30;7.30;99.90
13186;DHT22;6658;53.080;7.428;2023-02-13T05:19:55;7.30;99.90
13186;DHT22;6658;53.080;7.428;2023-02-13T05:22:21;7.30;99.90
13186;DHT22;6658;53.080;7.428;2023-02-13T05:25:05;7.30;99.90
13186;DHT22;6658;53.080;7.428;2023-02-13T05:27:31;7.30;99.90
13186;DHT22;6658;53.080;7.428;2023-02-13T05:29:57;7.20;99.90
13186;DHT22;6658;53.080;7.428;2023-02-13T05:32:22;7.20;99.90
13186;DHT22;6658;53.080;7.428;2023-02-13T05:34:48;7.20;99.90
13186;DHT22;6658;53.080;7.428;2023-02-13T05:37:14;7.30;99.90
13186;DHT22;6658;53.080;7.428;2023-02-13T05:39:39;7.30;99.90
13186;DHT22;6658;53.080;7.428;2023-02-13T05:42:05;7.30;99.90
13186;DHT22;6658;53.080;7.428;2023-02-13T05:44:31;7.30;99.90
13186;DHT22;6658;53.080;7.428;2023-02-13T05:46:56;7.30;99.90
13186;DHT22;6658;53.080;7.428;2023-02-13T05:49:22;7.30;99.90
13186;DHT22;6658;53.080;7.428;2023-02-13T05:51:48;7.30;99.90
13186;DHT22;6658;53.080;7.428;2023-02-13T05:54:16;7.30;99.90
13186;DHT22;6658;53.080;7.428;2023-02-13T05:56:42;7.30;99.90
13186;DHT22;6658;53.080;7.428;2023-02-13T05:59:08;7.30;99.90
13186;DHT22;6658;53.080;7.428;2023-02-13T06:01:34;7.30;99.90
13186;DHT22;6658;53.080;7.428;2023-02-13T06:04:00;7.30;99.90
13186;DHT22;6658;53.080;7.428;2023-02-13T06:06:26;7.30;99.90
13186;DHT22;6658;53.080;7.428;2023-02-13T06:08:52;7.40;99.90
13186;DHT22;6658;53.080;7.428;2023-02-13T06:11:18;7.30;99.90
13186;DHT22;6658;53.080;7.428;2023-02-13T06:13:44;7.30;99.90
13186;DHT22;6658;53.080;7.428;2023-02-13T06:16:10;7.30;99.90
13186;DHT22;6658;53.080;7.428;2023-02-13T06:18:36;7.30;99.90
13186;DHT22;6658;53.080;7.428;2023-02-13T06:21:03;7.30;99.90
13186;DHT22;6658;53.080;7.428;2023-02-13T06:23:29;7.30;99.90
13186;DHT22;6658;53.080;7.428;2023-02-13T06:25:55;7.30;99.90
13186;DHT22;6658;53.080;7.428;2023-02-13T06:28:21;7.20;99.90
13186;DHT22;6658;53.080;7.428;2023-02-13T06:30:47;7.20;99.90
13186;DHT22;6658;53.080;7.428;2023-02-13T06:33:13;7.20;99.90
13186;DHT22;6658;53.080;7.428;2023-02-13T06:35:39;7.20;99.90
13186;DHT22;6658;53.080;7.428;2023-02-13T06:38:05;7.20;99.90
13186;DHT22;6658;53.080;7.428;2023-02-13T06:40:30;7.20;99.90
13186;DHT22;6658;53.080;7.428;2023-02-13T06:42:56;7.30;99.90
13186;DHT22;6658;53.080;7.428;2023-02-13T06:45:22;7.30;99.90
13186;DHT22;6658;53.080;7.428;2023-02-13T06:47:48;7.30;99.90
13186;DHT22;6658;53.080;7.428;2023-02-13T06:50:15;7.30;99.90
13186;DHT22;6658;53.080;7.428;2023-02-13T06:52:48;7.30;99.90
13186;DHT22;6658;53.080;7.428;2023-02-13T06:55:16;7.30;99.90
13186;DHT22;6658;53.080;7.428;2023-02-13T06:57:42;7.30;99.90
13186;DHT22;6658;53.080;7.428;2023-02-13T07:00:09;7.30;99.90
13186;DHT22;6658;53.080;7.428;2023-02-13T07:02:38;7.40;99.90
13186;DHT22;6658;53.080;7.428;2023-02-13T07:05:04;7.30;99.90
13186;DHT22;6658;53.080;7.428;2023-02-13T07:07:34;7.30;99.90
13186;DHT22;6658;53.080;7.428;2023-02-13T07:10:00;7.30;99.90
13186;DHT22;6658;53.080;7.428;2023-02-13T07:12:26;7.30;99.90
13186;DHT22;6658;53.080;7.428;2023-02-13T07:14:51;7.30;99.90
13186;DHT22;6658;53.080;7.428;2023-02-13T07:17:17;7.30;99.90
13186;DHT22;6658;53.080;7.428;2023-02-13T07:19:43;7.30;99.90
13186;DHT22;6658;53.080;7.428;2023-02-13T07:22:08;7.30;99.90
13186;DHT22;6658;53.080;7.428;2023-02-13T07:24:34;7.40;99.90
13186;DHT22;6658;53.080;7.428;2023-02-13T07:27:05;7.40;99.90
13186;DHT22;6658;53.080;7.428;2023-02-13T07:29:31;7.40;99.90
13186;DHT22;6658;53.080;7.428;2023-02-13T07:31:57;7.30;99.90
13186;DHT22;6658;53.080;7.428;2023-02-13T07:34:22;7.30;99.90
13186;DHT22;6658;53.080;7.428;2023-02-13T07:36:48;7.30;99.90
13186;DHT22;6658;53.080;7.428;2023-02-13T07:39:14;7.40;99.90
13186;DHT22;6658;53.080;7.428;2023-02-13T07:41:39;7.40;99.90
13186;DHT22;6658;53.080;7.428;2023-02-13T07:44:05;7.40;99.90
13186;DHT22;6658;53.080;7.428;2023-02-13T07:46:31;7.40;99.90
13186;DHT22;6658;53.080;7.428;2023-02-13T07:48:56;7.40;99.90
13186;DHT22;6658;53.080;7.428;2023-02-13T07:51:22;7.40;99.90
13186;DHT22;6658;53.080;7.428;2023-02-13T07:53:51;7.50;99.90
13186;DHT22;6658;53.080;7.428;2023-02-13T07:56:17;7.50;99.90
13186;DHT22;6658;53.080;7.428;2023-02-13T07:58:43;7.50;99.90
13186;DHT22;6658;53.080;7.428;2023-02-13T08:01:11;7.50;99.90
13186;DHT22;6658;53.080;7.428;2023-02-13T08:03:37;7.50;99.90
13186;DHT22;6658;53.080;7.428;2023-02-13T08:06:04;7.50;99.90
13186;DHT22;6658;53.080;7.428;2023-02-13T08:08:30;7.50;99.90
13186;DHT22;6658;53.080;7.428;2023-02-13T08:10:56;7.50;99.90
13186;DHT22;6658;53.080;7.428;2023-02-13T08:13:41;7.50;99.90
13186;DHT22;6658;53.080;7.428;2023-02-13T08:16:07;7.50;99.90
13186;DHT22;6658;53.080;7.428;2023-02-13T08:18:33;7.50;99.90
13186;DHT22;6658;53.080;7.428;2023-02-13T08:21:01;7.50;99.90
13186;DHT22;6658;53.080;7.428;2023-02-13T08:23:32;7.50;99.90
13186;DHT22;6658;53.080;7.428;2023-02-13T08:26:01;7.50;99.90
13186;DHT22;6658;53.080;7.428;2023-02-13T08:28:28;7.60;99.90
13186;DHT22;6658;53.080;7.428;2023-02-13T08:30:54;7.60;99.90
13186;DHT22;6658;53.080;7.428;2023-02-13T08:33:20;7.60;99.90
13186;DHT22;6658;53.080;7.428;2023-02-13T08:35:45;7.70;99.90
13186;DHT22;6658;53.080;7.428;2023-02-13T08:38:11;7.70;99.90
13186;DHT22;6658;53.080;7.428;2023-02-13T08:40:37;7.70;99.90
13186;DHT22;6658;53.080;7.428;2023-02-13T08:43:04;7.70;99.90
13186;DHT22;6658;53.080;7.428;2023-02-13T08:45:31;7.70;99.90
13186;DHT22;6658;53.080;7.428;2023-02-13T08:48:00;7.70;99.90
13186;DHT22;6658;53.080;7.428;2023-02-13T08:50:28;7.70;99.90
13186;DHT22;6658;53.080;7.428;2023-02-13T08:52:54;7.80;99.90
13186;DHT22;6658;53.080;7.428;2023-02-13T08:55:20;7.80;99.90
13186;DHT22;6658;53.080;7.428;2023-02-13T08:57:45;7.80;99.90
13186;DHT22;6658;53.080;7.428;2023-02-13T09:00:12;7.80;99.90
13186;DHT22;6658;53.080;7.428;2023-02-13T09:02:38;7.80;99.90
13186;DHT22;6658;53.080;7.428;2023-02-13T09:05:03;7.80;99.90
13186;DHT22;6658;53.080;7.428;2023-02-13T09:07:29;7.80;99.90
13186;DHT22;6658;53.080;7.428;2023-02-13T09:09:55;7.80;99.90
13186;DHT22;6658;53.080;7.428;2023-02-13T09:12:23;7.80;99.90
13186;DHT22;6658;53.080;7.428;2023-02-13T09:14:49;7.90;99.90
13186;DHT22;6658;53.080;7.428;2023-02-13T09:17:15;7.90;99.90
13186;DHT22;6658;53.080;7.428;2023-02-13T09:19:43;7.90;99.90
13186;DHT22;6658;53.080;7.428;2023-02-13T09:22:10;7.90;99.90
13186;DHT22;6658;53.080;7.428;2023-02-13T09:24:35;8.00;99.90
13186;DHT22;6658;53.080;7.428;2023-02-13T09:27:03;8.00;99.90
13186;DHT22;6658;53.080;7.428;2023-02-13T09:29:29;8.00;99.90
13186;DHT22;6658;53.080;7.428;2023-02-13T09:31:56;8.00;99.90
13186;DHT22;6658;53.080;7.428;2023-02-13T09:34:21;8.00;99.90
13186;DHT22;6658;53.080;7.428;2023-02-13T09:36:51;8.00;99.90
13186;DHT22;6658;53.080;7.428;2023-02-13T09:39:18;8.00;99.90
13186;DHT22;6658;53.080;7.428;2023-02-13T09:41:44;8.00;99.90
13186;DHT22;6658;53.080;7.428;2023-02-13T09:47:18;8.10;99.90
13186;DHT22;6658;53.080;7.428;2023-02-13T09:49:50;8.20;99.90
13186;DHT22;6658;53.080;7.428;2023-02-13T09:52:18;8.20;99.90
13186;DHT22;6658;53.080;7.428;2023-02-13T09:54:43;8.20;99.90
13186;DHT22;6658;53.080;7.428;2023-02-13T09:57:33;8.20;99.90
13186;DHT22;6658;53.080;7.428;2023-02-13T10:00:20;8.20;99.90
13186;DHT22;6658;53.080;7.428;2023-02-13T10:05:55;8.30;99.90
13186;DHT22;6658;53.080;7.428;2023-02-13T10:11:12;8.30;99.90
13186;DHT22;6658;53.080;7.428;2023-02-13T10:17:22;8.40;99.90
13186;DHT22;6658;53.080;7.428;2023-02-13T10:19:59;8.40;99.90
13186;DHT22;6658;53.080;7.428;2023-02-13T10:22:41;8.40;99.90
13186;DHT22;6658;53.080;7.428;2023-02-13T10:25:16;8.50;99.90
13186;DHT22;6658;53.080;7.428;2023-02-13T10:27:45;8.40;99.90
13186;DHT22;6658;53.080;7.428;2023-02-13T10:35:36;8.60;99.90
13186;DHT22;6658;53.080;7.428;2023-02-13T10:38:17;8.60;99.90
13186;DHT22;6658;53.080;7.428;2023-02-13T10:46:29;8.70;99.90
13186;DHT22;6658;53.080;7.428;2023-02-13T10:49:09;8.70;99.90
13186;DHT22;6658;53.080;7.428;2023-02-13T10:51:44;8.70;99.90
13186;DHT22;6658;53.080;7.428;2023-02-13T10:54:19;8.70;99.90
13186;DHT22;6658;53.080;7.428;2023-02-13T10:56:58;8.70;99.90
13186;DHT22;6658;53.080;7.428;2023-02-13T11:02:26;8.70;99.90
13186;DHT22;6658;53.080;7.428;2023-02-13T11:05:20;8.80;99.90
13186;DHT22;6658;53.080;7.428;2023-02-13T11:07:47;8.70;99.90
13186;DHT22;6658;53.080;7.428;2023-02-13T11:10:22;8.80;99.90
13186;DHT22;6658;53.080;7.428;2023-02-13T11:12:48;8.90;99.90
13186;DHT22;6658;53.080;7.428;2023-02-13T11:15:31;8.90;99.90
13186;DHT22;6658;53.080;7.428;2023-02-13T11:18:17;8.90;99.90
13186;DHT22;6658;53.080;7.428;2023-02-13T11:20:45;8.90;99.90
13186;DHT22;6658;53.080;7.428;2023-02-13T11:28:31;9.10;99.90
13186;DHT22;6658;53.080;7.428;2023-02-13T11:31:18;9.10;99.90
13186;DHT22;6658;53.080;7.428;2023-02-13T11:33:45;9.20;99.90
13186;DHT22;6658;53.080;7.428;2023-02-13T11:36:22;9.30;99.90
13186;DHT22;6658;53.080;7.428;2023-02-13T11:39:05;9.30;99.90
13186;DHT22;6658;53.080;7.428;2023-02-13T11:41:42;9.40;99.90
13186;DHT22;6658;53.080;7.428;2023-02-13T11:44:28;9.40;99.90
13186;DHT22;6658;53.080;7.428;2023-02-13T11:46:57;9.50;99.90
13186;DHT22;6658;53.080;7.428;2023-02-13T11:49:25;9.50;99.90
13186;DHT22;6658;53.080;7.428;2023-02-13T11:51:57;9.60;99.90
13186;DHT22;6658;53.080;7.428;2023-02-13T11:54:33;9.60;99.90
13186;DHT22;6658;53.080;7.428;2023-02-13T11:59:44;9.70;99.90
13186;DHT22;6658;53.080;7.428;2023-02-13T12:04:39;9.70;99.90
13186;DHT22;6658;53.080;7.428;2023-02-13T12:07:24;9.60;99.90
13186;DHT22;6658;53.080;7.428;2023-02-13T12:13:05;9.60;99.90
13186;DHT22;6658;53.080;7.428;2023-02-13T12:15:37;9.50;99.90
13186;DHT22;6658;53.080;7.428;2023-02-13T12:18:35;9.50;99.90
13186;DHT22;6658;53.080;7.428;2023-02-13T12:40:41;10.00;99.90
13186;DHT22;6658;53.080;7.428;2023-02-13T12:53:53;9.80;99.90
13186;DHT22;6658;53.080;7.428;2023-02-13T12:56:33;9.80;99.90
13186;DHT22;6658;53.080;7.428;2023-02-13T12:59:03;9.80;99.90
13186;DHT22;6658;53.080;7.428;2023-02-13T13:07:18;9.80;99.90
13186;DHT22;6658;53.080;7.428;2023-02-13T13:10:02;9.80;99.90
13186;DHT22;6658;53.080;7.428;2023-02-13T13:18:37;9.80;99.90
13186;DHT22;6658;53.080;7.428;2023-02-13T13:23:52;9.90;99.90
13186;DHT22;6658;53.080;7.428;2023-02-13T13:29:00;9.90;99.90
13186;DHT22;6658;53.080;7.428;2023-02-13T13:31:29;10.00;99.90
13186;DHT22;6658;53.080;7.428;2023-02-13T13:34:01;10.10;99.90
13186;DHT22;6658;53.080;7.428;2023-02-13T13:36:57;10.00;99.90
13186;DHT22;6658;53.080;7.428;2023-02-13T13:39:35;9.90;99.90
13186;DHT22;6658;53.080;7.428;2023-02-13T13:42:10;9.90;99.90
13186;DHT22;6658;53.080;7.428;2023-02-13T13:47:46;9.90;99.90
13186;DHT22;6658;53.080;7.428;2023-02-13T13:50:24;10.00;99.90
13186;DHT22;6658;53.080;7.428;2023-02-13T13:53:23;10.00;99.90
13186;DHT22;6658;53.080;7.428;2023-02-13T14:01:27;10.00;99.90
13186;DHT22;6658;53.080;7.428;2023-02-13T14:03:57;10.00;99.90
13186;DHT22;6658;53.080;7.428;2023-02-13T14:06:26;10.00;99.90
13186;DHT22;6658;53.080;7.428;2023-02-13T14:09:03;10.00;99.90
13186;DHT22;6658;53.080;7.428;2023-02-13T14:11:37;10.00;99.90
13186;DHT22;6658;53.080;7.428;2023-02-13T14:16:51;10.00;99.90
13186;DHT22;6658;53.080;7.428;2023-02-13T14:19:28;10.00;99.90
13186;DHT22;6658;53.080;7.428;2023-02-13T14:25:04;10.00;99.90
13186;DHT22;6658;53.080;7.428;2023-02-13T14:27:33;10.00;99.90
13186;DHT22;6658;53.080;7.428;2023-02-13T14:30:02;10.00;99.90
13186;DHT22;6658;53.080;7.428;2023-02-13T14:32:34;10.10;99.90
13186;DHT22;6658;53.080;7.428;2023-02-13T14:37:53;10.00;99.90
13186;DHT22;6658;53.080;7.428;2023-02-13T14:43:15;10.00;99.90
13186;DHT22;6658;53.080;7.428;2023-02-13T14:45:54;10.00;99.90
13186;DHT22;6658;53.080;7.428;2023-02-13T14:48:28;9.90;99.90
13186;DHT22;6658;53.080;7.428;2023-02-13T14:50:56;9.90;99.90
13186;DHT22;6658;53.080;7.428;2023-02-13T14:53:47;9.90;99.90
13186;DHT22;6658;53.080;7.428;2023-02-13T14:56:17;9.90;99.90
13186;DHT22;6658;53.080;7.428;2023-02-13T14:59:12;9.90;99.90
13186;DHT22;6658;53.080;7.428;2023-02-13T15:01:45;9.90;99.90
13186;DHT22;6658;53.080;7.428;2023-02-13T15:04:17;9.90;99.90
13186;DHT22;6658;53.080;7.428;2023-02-13T15:06:46;9.90;99.90
13186;DHT22;6658;53.080;7.428;2023-02-13T15:09:31;9.80;99.90
13186;DHT22;6658;53.080;7.428;2023-02-13T15:11:58;9.80;99.90
13186;DHT22;6658;53.080;7.428;2023-02-13T15:14:30;9.80;99.90
13186;DHT22;6658;53.080;7.428;2023-02-13T15:16:58;9.80;99.90
13186;DHT22;6658;53.080;7.428;2023-02-13T15:19:26;9.80;99.90
13186;DHT22;6658;53.080;7.428;2023-02-13T15:22:03;9.90;99.90
13186;DHT22;6658;53.080;7.428;2023-02-13T15:24:35;9.90;99.90
13186;DHT22;6658;53.080;7.428;2023-02-13T15:27:04;9.80;99.90
13186;DHT22;6658;53.080;7.428;2023-02-13T15:29:31;9.90;99.90
13186;DHT22;6658;53.080;7.428;2023-02-13T15:31:57;9.90;99.90
13186;DHT22;6658;53.080;7.428;2023-02-13T15:34:25;9.90;99.90
13186;DHT22;6658;53.080;7.428;2023-02-13T15:36:51;9.80;99.90
13186;DHT22;6658;53.080;7.428;2023-02-13T15:39:22;9.80;99.90
13186;DHT22;6658;53.080;7.428;2023-02-13T15:41:50;9.80;99.90
13186;DHT22;6658;53.080;7.428;2023-02-13T15:44:44;9.70;99.90
13186;DHT22;6658;53.080;7.428;2023-02-13T15:47:30;9.80;99.90
13186;DHT22;6658;53.080;7.428;2023-02-13T15:49:57;9.80;99.90
13186;DHT22;6658;53.080;7.428;2023-02-13T15:54:56;9.70;99.90
13186;DHT22;6658;53.080;7.428;2023-02-13T15:57:22;9.70;99.90
13186;DHT22;6658;53.080;7.428;2023-02-13T15:59:49;9.60;99.90
13186;DHT22;6658;53.080;7.428;2023-02-13T16:02:38;9.60;99.90
13186;DHT22;6658;53.080;7.428;2023-02-13T16:05:05;9.60;99.90
13186;DHT22;6658;53.080;7.428;2023-02-13T16:07:49;9.60;99.90
13186;DHT22;6658;53.080;7.428;2023-02-13T16:12:46;9.50;99.90
13186;DHT22;6658;53.080;7.428;2023-02-13T16:15:16;9.50;99.90
13186;DHT22;6658;53.080;7.428;2023-02-13T16:17:44;9.40;99.90
13186;DHT22;6658;53.080;7.428;2023-02-13T16:22:48;9.40;99.90
13186;DHT22;6658;53.080;7.428;2023-02-13T16:25:30;9.30;99.90
13186;DHT22;6658;53.080;7.428;2023-02-13T16:28:02;9.30;99.90
13186;DHT22;6658;53.080;7.428;2023-02-13T16:30:33;9.30;99.90
13186;DHT22;6658;53.080;7.428;2023-02-13T16:35:44;9.20;99.90
13186;DHT22;6658;53.080;7.428;2023-02-13T16:38:33;9.20;99.90
13186;DHT22;6658;53.080;7.428;2023-02-13T16:41:03;9.10;99.90
13186;DHT22;6658;53.080;7.428;2023-02-13T16:48:43;8.80;99.90
13186;DHT22;6658;53.080;7.428;2023-02-13T16:51:12;8.80;99.90
13186;DHT22;6658;53.080;7.428;2023-02-13T16:53:39;8.70;99.90
13186;DHT22;6658;53.080;7.428;2023-02-13T16:56:07;8.60;99.90
13186;DHT22;6658;53.080;7.428;2023-02-13T16:58:33;8.50;99.90
13186;DHT22;6658;53.080;7.428;2023-02-13T17:00:59;8.40;99.90
13186;DHT22;6658;53.080;7.428;2023-02-13T17:03:31;8.30;99.90
13186;DHT22;6658;53.080;7.428;2023-02-13T17:06:00;8.30;99.90
13186;DHT22;6658;53.080;7.428;2023-02-13T17:08:26;8.20;99.90
13186;DHT22;6658;53.080;7.428;2023-02-13T17:11:05;8.10;99.90
13186;DHT22;6658;53.080;7.428;2023-02-13T17:13:31;8.00;99.90
13186;DHT22;6658;53.080;7.428;2023-02-13T17:15:57;7.90;99.90
13186;DHT22;6658;53.080;7.428;2023-02-13T17:18:24;7.90;99.90
13186;DHT22;6658;53.080;7.428;2023-02-13T17:20:50;7.80;99.90
13186;DHT22;6658;53.080;7.428;2023-02-13T17:23:19;7.70;99.90
13186;DHT22;6658;53.080;7.428;2023-02-13T17:25:47;7.60;99.90
13186;DHT22;6658;53.080;7.428;2023-02-13T17:28:17;7.60;99.90
13186;DHT22;6658;53.080;7.428;2023-02-13T17:30:44;7.50;99.90
13186;DHT22;6658;53.080;7.428;2023-02-13T17:33:22;7.40;99.90
13186;DHT22;6658;53.080;7.428;2023-02-13T17:35:49;7.30;99.90
13186;DHT22;6658;53.080;7.428;2023-02-13T17:38:14;7.20;99.90
13186;DHT22;6658;53.080;7.428;2023-02-13T17:40:41;7.10;99.90
13186;DHT22;6658;53.080;7.428;2023-02-13T17:43:10;7.10;99.90
13186;DHT22;6658;53.080;7.428;2023-02-13T17:45:35;7.00;99.90
13186;DHT22;6658;53.080;7.428;2023-02-13T17:48:01;7.00;99.90
13186;DHT22;6658;53.080;7.428;2023-02-13T17:50:28;6.90;99.90
13186;DHT22;6658;53.080;7.428;2023-02-13T17:52:54;6.80;99.90
13186;DHT22;6658;53.080;7.428;2023-02-13T17:55:21;6.80;99.90
13186;DHT22;6658;53.080;7.428;2023-02-13T17:57:49;6.70;99.90
13186;DHT22;6658;53.080;7.428;2023-02-13T18:00:16;6.60;99.90
13186;DHT22;6658;53.080;7.428;2023-02-13T18:02:42;6.60;99.90
13186;DHT22;6658;53.080;7.428;2023-02-13T18:05:09;6.50;99.90
13186;DHT22;6658;53.080;7.428;2023-02-13T18:07:35;6.40;99.90
13186;DHT22;6658;53.080;7.428;2023-02-13T18:10:01;6.40;99.90
13186;DHT22;6658;53.080;7.428;2023-02-13T18:12:27;6.30;99.90
13186;DHT22;6658;53.080;7.428;2023-02-13T18:14:53;6.20;99.90
13186;DHT22;6658;53.080;7.428;2023-02-13T18:17:19;6.20;99.90
13186;DHT22;6658;53.080;7.428;2023-02-13T18:19:46;6.20;99.90
13186;DHT22;6658;53.080;7.428;2023-02-13T18:22:12;6.20;99.90
13186;DHT22;6658;53.080;7.428;2023-02-13T18:24:40;6.10;99.90
13186;DHT22;6658;53.080;7.428;2023-02-13T18:27:07;6.00;99.90
13186;DHT22;6658;53.080;7.428;2023-02-13T18:29:33;6.00;99.90
13186;DHT22;6658;53.080;7.428;2023-02-13T18:32:03;5.90;99.90
13186;DHT22;6658;53.080;7.428;2023-02-13T18:34:30;5.90;99.90
13186;DHT22;6658;53.080;7.428;2023-02-13T18:36:56;5.80;99.90
13186;DHT22;6658;53.080;7.428;2023-02-13T18:39:21;5.80;99.90
13186;DHT22;6658;53.080;7.428;2023-02-13T18:41:47;5.80;99.90
13186;DHT22;6658;53.080;7.428;2023-02-13T18:44:13;5.70;99.90
13186;DHT22;6658;53.080;7.428;2023-02-13T18:46:38;5.70;99.90
13186;DHT22;6658;53.080;7.428;2023-02-13T18:49:04;5.60;99.90
13186;DHT22;6658;53.080;7.428;2023-02-13T18:51:30;5.60;99.90
13186;DHT22;6658;53.080;7.428;2023-02-13T18:53:56;5.60;99.90
13186;DHT22;6658;53.080;7.428;2023-02-13T18:56:22;5.50;99.90
13186;DHT22;6658;53.080;7.428;2023-02-13T18:58:49;5.50;99.90
13186;DHT22;6658;53.080;7.428;2023-02-13T19:01:17;5.50;99.90
13186;DHT22;6658;53.080;7.428;2023-02-13T19:03:45;5.50;99.90
13186;DHT22;6658;53.080;7.428;2023-02-13T19:06:13;5.50;99.90